sensor_id;sensor_type;location;lat;lon;timestamp;P1;durP1;ratioP1;P2;durP2;ratioP2
58685;SDS011;44465;53.206;-6.106;2023-04-29T00:00:04;4.67;;;3.00;;
58685;SDS011;44465;53.206;-6.106;2023-04-29T00:02:39;6.20;;;3.65;;
58685;SDS011;44465;53.206;-6.106;2023-04-29T00:05:05;4.47;;;3.45;;
58685;SDS011;44465;53.206;-6.106;2023-04-29T00:07:31;3.90;;;2.83;;
58685;SDS011;44465;53.206;-6.106;2023-04-29T00:09:56;4.90;;;2.95;;
58685;SDS011;44465;53.206;-6.106;2023-04-29T00:12:23;7.53;;;3.13;;
58685;SDS011;44465;53.206;-6.106;2023-04-29T00:14:48;6.10;;;2.95;;
58685;SDS011;44465;53.206;-6.106;2023-04-29T00:17:14;4.63;;;2.95;;
58685;SDS011;44465;53.206;-6.106;2023-04-29T00:19:40;3.47;;;2.83;;
58685;SDS011;44465;53.206;-6.106;2023-04-29T00:22:05;4.82;;;2.78;;
58685;SDS011;44465;53.206;-6.106;2023-04-29T00:24:31;4.40;;;2.72;;
58685;SDS011;44465;53.206;-6.106;2023-04-29T00:26:57;7.45;;;2.97;;
58685;SDS011;44465;53.206;-6.106;2023-04-29T00:29:23;3.50;;;2.33;;
58685;SDS011;44465;53.206;-6.106;2023-04-29T00:31:49;3.45;;;2.75;;
58685;SDS011;44465;53.206;-6.106;2023-04-29T00:34:14;5.28;;;2.88;;
58685;SDS011;44465;53.206;-6.106;2023-04-29T00:36:40;3.35;;;2.58;;
58685;SDS011;44465;53.206;-6.106;2023-04-29T00:39:06;3.60;;;2.30;;
58685;SDS011;44465;53.206;-6.106;2023-04-29T00:41:32;3.05;;;2.63;;
58685;SDS011;44465;53.206;-6.106;2023-04-29T00:43:57;2.92;;;2.55;;
58685;SDS011;44465;53.206;-6.106;2023-04-29T00:46:23;4.43;;;2.35;;
58685;SDS011;44465;53.206;-6.106;2023-04-29T00:48:49;3.40;;;2.35;;
58685;SDS011;44465;53.206;-6.106;2023-04-29T00:51:15;3.30;;;2.33;;
58685;SDS011;44465;53.206;-6.106;2023-04-29T00:53:42;2.40;;;2.10;;
58685;SDS011;44465;53.206;-6.106;2023-04-29T00:56:08;3.10;;;2.42;;
58685;SDS011;44465;53.206;-6.106;2023-04-29T00:58:34;3.05;;;2.17;;
58685;SDS011;44465;53.206;-6.106;2023-04-29T01:01:00;3.25;;;2.72;;
58685;SDS011;44465;53.206;-6.106;2023-04-29T01:03:28;2.83;;;2.25;;
58685;SDS011;44465;53.206;-6.106;2023-04-29T01:06:06;2.35;;;1.83;;
58685;SDS011;44465;53.206;-6.106;2023-04-29T01:11:33;2.83;;;2.20;;
58685;SDS011;44465;53.206;-6.106;2023-04-29T01:14:04;3.63;;;2.10;;
58685;SDS011;44465;53.206;-6.106;2023-04-29T01:16:35;3.40;;;2.28;;
58685;SDS011;44465;53.206;-6.106;2023-04-29T01:22:08;5.28;;;1.95;;
58685;SDS011;44465;53.206;-6.106;2023-04-29T01:24:33;4.30;;;2.50;;
58685;SDS011;44465;53.206;-6.106;2023-04-29T01:32:51;1.95;;;1.70;;
58685;SDS011;44465;53.206;-6.106;2023-04-29T01:38:33;2.17;;;1.75;;
58685;SDS011;44465;53.206;-6.106;2023-04-29T01:43:42;2.13;;;1.92;;
58685;SDS011;44465;53.206;-6.106;2023-04-29T01:46:18;1.83;;;1.70;;
58685;SDS011;44465;53.206;-6.106;2023-04-29T01:48:44;3.80;;;1.98;;
58685;SDS011;44465;53.206;-6.106;2023-04-29T01:51:10;3.05;;;1.80;;
58685;SDS011;44465;53.206;-6.106;2023-04-29T01:53:36;1.85;;;1.65;;
58685;SDS011;44465;53.206;-6.106;2023-04-29T01:56:06;2.17;;;1.70;;
58685;SDS011;44465;53.206;-6.106;2023-04-29T01:58:55;2.00;;;1.80;;
58685;SDS011;44465;53.206;-6.106;2023-04-29T02:01:50;1.92;;;1.73;;
58685;SDS011;44465;53.206;-6.106;2023-04-29T02:04:15;1.95;;;1.85;;
58685;SDS011;44465;53.206;-6.106;2023-04-29T02:06:41;2.20;;;1.45;;
58685;SDS011;44465;53.206;-6.106;2023-04-29T02:09:07;2.53;;;1.70;;
58685;SDS011;44465;53.206;-6.106;2023-04-29T02:11:34;2.47;;;1.67;;
58685;SDS011;44465;53.206;-6.106;2023-04-29T02:14:00;2.22;;;2.03;;
58685;SDS011;44465;53.206;-6.106;2023-04-29T02:19:16;1.73;;;1.60;;
58685;SDS011;44465;53.206;-6.106;2023-04-29T02:21:42;1.60;;;1.50;;
58685;SDS011;44465;53.206;-6.106;2023-04-29T02:24:08;2.00;;;1.58;;
58685;SDS011;44465;53.206;-6.106;2023-04-29T02:26:33;1.70;;;1.60;;
58685;SDS011;44465;53.206;-6.106;2023-04-29T02:28:59;1.60;;;1.50;;
58685;SDS011;44465;53.206;-6.106;2023-04-29T02:31:25;1.73;;;1.60;;
58685;SDS011;44465;53.206;-6.106;2023-04-29T02:33:52;2.67;;;1.38;;
58685;SDS011;44465;53.206;-6.106;2023-04-29T02:36:18;1.58;;;1.48;;
58685;SDS011;44465;53.206;-6.106;2023-04-29T02:38:44;1.90;;;1.40;;
58685;SDS011;44465;53.206;-6.106;2023-04-29T02:41:09;1.35;;;1.33;;
58685;SDS011;44465;53.206;-6.106;2023-04-29T02:43:40;2.00;;;1.80;;
58685;SDS011;44465;53.206;-6.106;2023-04-29T02:46:05;1.75;;;1.65;;
58685;SDS011;44465;53.206;-6.106;2023-04-29T02:48:31;1.60;;;1.50;;
58685;SDS011;44465;53.206;-6.106;2023-04-29T02:50:56;1.73;;;1.45;;
58685;SDS011;44465;53.206;-6.106;2023-04-29T02:53:22;3.15;;;1.98;;
58685;SDS011;44465;53.206;-6.106;2023-04-29T02:55:47;1.50;;;1.40;;
58685;SDS011;44465;53.206;-6.106;2023-04-29T02:58:13;1.80;;;1.70;;
58685;SDS011;44465;53.206;-6.106;2023-04-29T03:00:41;1.35;;;1.25;;
58685;SDS011;44465;53.206;-6.106;2023-04-29T03:03:07;1.63;;;1.35;;
58685;SDS011;44465;53.206;-6.106;2023-04-29T03:05:33;1.30;;;1.20;;
58685;SDS011;44465;53.206;-6.106;2023-04-29T03:07:59;2.78;;;1.65;;
58685;SDS011;44465;53.206;-6.106;2023-04-29T03:10:26;1.33;;;1.23;;
58685;SDS011;44465;53.206;-6.106;2023-04-29T03:12:52;1.40;;;1.30;;
58685;SDS011;44465;53.206;-6.106;2023-04-29T03:15:17;1.23;;;1.08;;
58685;SDS011;44465;53.206;-6.106;2023-04-29T03:17:44;1.25;;;1.10;;
58685;SDS011;44465;53.206;-6.106;2023-04-29T03:20:11;1.15;;;1.08;;
58685;SDS011;44465;53.206;-6.106;2023-04-29T03:22:37;1.30;;;1.17;;
58685;SDS011;44465;53.206;-6.106;2023-04-29T03:25:03;2.75;;;1.55;;
58685;SDS011;44465;53.206;-6.106;2023-04-29T03:27:30;1.55;;;1.30;;
58685;SDS011;44465;53.206;-6.106;2023-04-29T03:29:55;1.40;;;0.98;;
58685;SDS011;44465;53.206;-6.106;2023-04-29T03:32:21;1.17;;;1.08;;
58685;SDS011;44465;53.206;-6.106;2023-04-29T03:34:47;1.13;;;1.00;;
58685;SDS011;44465;53.206;-6.106;2023-04-29T03:37:22;2.38;;;0.90;;
58685;SDS011;44465;53.206;-6.106;2023-04-29T03:39:54;1.10;;;1.10;;
58685;SDS011;44465;53.206;-6.106;2023-04-29T03:42:19;2.88;;;1.25;;
58685;SDS011;44465;53.206;-6.106;2023-04-29T03:44:45;1.15;;;0.90;;
58685;SDS011;44465;53.206;-6.106;2023-04-29T03:47:10;1.40;;;1.30;;
58685;SDS011;44465;53.206;-6.106;2023-04-29T03:49:38;1.60;;;1.30;;
58685;SDS011;44465;53.206;-6.106;2023-04-29T03:52:03;1.33;;;1.27;;
58685;SDS011;44465;53.206;-6.106;2023-04-29T03:54:29;1.13;;;1.13;;
58685;SDS011;44465;53.206;-6.106;2023-04-29T03:56:55;1.67;;;1.10;;
58685;SDS011;44465;53.206;-6.106;2023-04-29T03:59:21;1.05;;;1.00;;
58685;SDS011;44465;53.206;-6.106;2023-04-29T04:01:47;2.28;;;1.35;;
58685;SDS011;44465;53.206;-6.106;2023-04-29T04:04:12;1.05;;;0.95;;
58685;SDS011;44465;53.206;-6.106;2023-04-29T04:06:47;1.00;;;1.00;;
58685;SDS011;44465;53.206;-6.106;2023-04-29T04:09:17;1.05;;;1.00;;
58685;SDS011;44465;53.206;-6.106;2023-04-29T04:11:44;1.00;;;1.00;;
58685;SDS011;44465;53.206;-6.106;2023-04-29T04:14:10;0.90;;;0.90;;
58685;SDS011;44465;53.206;-6.106;2023-04-29T04:16:37;1.30;;;1.05;;
58685;SDS011;44465;53.206;-6.106;2023-04-29T04:19:02;1.13;;;1.10;;
58685;SDS011;44465;53.206;-6.106;2023-04-29T04:21:30;0.93;;;0.90;;
58685;SDS011;44465;53.206;-6.106;2023-04-29T04:24:02;0.93;;;0.93;;
58685;SDS011;44465;53.206;-6.106;2023-04-29T04:26:29;1.03;;;1.03;;
58685;SDS011;44465;53.206;-6.106;2023-04-29T04:29:00;1.05;;;0.95;;
58685;SDS011;44465;53.206;-6.106;2023-04-29T04:31:32;1.50;;;1.20;;
58685;SDS011;44465;53.206;-6.106;2023-04-29T04:33:58;1.15;;;1.08;;
58685;SDS011;44465;53.206;-6.106;2023-04-29T04:36:24;1.30;;;0.98;;
58685;SDS011;44465;53.206;-6.106;2023-04-29T04:38:51;0.80;;;0.80;;
58685;SDS011;44465;53.206;-6.106;2023-04-29T04:41:16;1.02;;;0.90;;
58685;SDS011;44465;53.206;-6.106;2023-04-29T04:43:45;1.02;;;0.85;;
58685;SDS011;44465;53.206;-6.106;2023-04-29T04:46:21;1.10;;;1.10;;
58685;SDS011;44465;53.206;-6.106;2023-04-29T04:49:04;1.52;;;1.33;;
58685;SDS011;44465;53.206;-6.106;2023-04-29T04:51:32;1.00;;;1.00;;
58685;SDS011;44465;53.206;-6.106;2023-04-29T04:53:57;1.17;;;1.08;;
58685;SDS011;44465;53.206;-6.106;2023-04-29T04:56:27;1.00;;;0.98;;
58685;SDS011;44465;53.206;-6.106;2023-04-29T04:58:52;1.20;;;1.10;;
58685;SDS011;44465;53.206;-6.106;2023-04-29T05:01:18;1.27;;;1.10;;
58685;SDS011;44465;53.206;-6.106;2023-04-29T05:03:43;0.88;;;0.88;;
58685;SDS011;44465;53.206;-6.106;2023-04-29T05:06:09;1.52;;;0.90;;
58685;SDS011;44465;53.206;-6.106;2023-04-29T05:08:37;0.70;;;0.70;;
58685;SDS011;44465;53.206;-6.106;2023-04-29T05:11:04;0.75;;;0.75;;
58685;SDS011;44465;53.206;-6.106;2023-04-29T05:13:29;0.77;;;0.77;;
58685;SDS011;44465;53.206;-6.106;2023-04-29T05:15:55;1.10;;;1.00;;
58685;SDS011;44465;53.206;-6.106;2023-04-29T05:18:24;0.98;;;0.80;;
58685;SDS011;44465;53.206;-6.106;2023-04-29T05:20:50;0.70;;;0.70;;
58685;SDS011;44465;53.206;-6.106;2023-04-29T05:23:16;1.40;;;1.02;;
58685;SDS011;44465;53.206;-6.106;2023-04-29T05:25:44;1.10;;;1.00;;
58685;SDS011;44465;53.206;-6.106;2023-04-29T05:28:10;0.68;;;0.68;;
58685;SDS011;44465;53.206;-6.106;2023-04-29T05:30:38;0.85;;;0.85;;
58685;SDS011;44465;53.206;-6.106;2023-04-29T05:33:05;1.20;;;1.00;;
58685;SDS011;44465;53.206;-6.106;2023-04-29T05:35:30;0.93;;;0.60;;
58685;SDS011;44465;53.206;-6.106;2023-04-29T05:37:57;1.33;;;0.77;;
58685;SDS011;44465;53.206;-6.106;2023-04-29T05:40:34;0.80;;;0.80;;
58685;SDS011;44465;53.206;-6.106;2023-04-29T05:43:25;1.75;;;0.90;;
58685;SDS011;44465;53.206;-6.106;2023-04-29T05:45:52;0.77;;;0.77;;
58685;SDS011;44465;53.206;-6.106;2023-04-29T05:48:17;1.10;;;1.00;;
58685;SDS011;44465;53.206;-6.106;2023-04-29T05:50:43;0.98;;;0.98;;
58685;SDS011;44465;53.206;-6.106;2023-04-29T05:53:09;1.23;;;1.00;;
58685;SDS011;44465;53.206;-6.106;2023-04-29T05:55:35;1.25;;;1.02;;
58685;SDS011;44465;53.206;-6.106;2023-04-29T05:58:01;0.82;;;0.82;;
58685;SDS011;44465;53.206;-6.106;2023-04-29T06:00:27;1.00;;;0.88;;
58685;SDS011;44465;53.206;-6.106;2023-04-29T06:02:59;0.80;;;0.70;;
58685;SDS011;44465;53.206;-6.106;2023-04-29T06:05:26;1.20;;;0.90;;
58685;SDS011;44465;53.206;-6.106;2023-04-29T06:08:10;0.90;;;0.85;;
58685;SDS011;44465;53.206;-6.106;2023-04-29T06:10:58;1.00;;;0.60;;
58685;SDS011;44465;53.206;-6.106;2023-04-29T06:13:24;0.55;;;0.50;;
58685;SDS011;44465;53.206;-6.106;2023-04-29T06:15:50;0.73;;;0.70;;
58685;SDS011;44465;53.206;-6.106;2023-04-29T06:18:16;0.90;;;0.88;;
58685;SDS011;44465;53.206;-6.106;2023-04-29T06:20:42;1.40;;;0.73;;
58685;SDS011;44465;53.206;-6.106;2023-04-29T06:23:07;1.42;;;0.90;;
58685;SDS011;44465;53.206;-6.106;2023-04-29T06:25:33;1.08;;;1.00;;
58685;SDS011;44465;53.206;-6.106;2023-04-29T06:28:01;0.82;;;0.82;;
58685;SDS011;44465;53.206;-6.106;2023-04-29T06:32:55;1.20;;;0.73;;
58685;SDS011;44465;53.206;-6.106;2023-04-29T06:35:21;0.70;;;0.70;;
58685;SDS011;44465;53.206;-6.106;2023-04-29T06:37:56;0.98;;;0.90;;
58685;SDS011;44465;53.206;-6.106;2023-04-29T06:40:33;1.65;;;0.70;;
58685;SDS011;44465;53.206;-6.106;2023-04-29T06:43:07;1.10;;;1.00;;
58685;SDS011;44465;53.206;-6.106;2023-04-29T06:45:51;1.15;;;1.00;;
58685;SDS011;44465;53.206;-6.106;2023-04-29T06:48:20;0.95;;;0.95;;
58685;SDS011;44465;53.206;-6.106;2023-04-29T06:50:51;1.08;;;0.70;;
58685;SDS011;44465;53.206;-6.106;2023-04-29T06:53:20;0.80;;;0.80;;
58685;SDS011;44465;53.206;-6.106;2023-04-29T06:55:46;0.65;;;0.60;;
58685;SDS011;44465;53.206;-6.106;2023-04-29T06:58:12;1.13;;;0.85;;
58685;SDS011;44465;53.206;-6.106;2023-04-29T07:00:38;0.95;;;0.93;;
58685;SDS011;44465;53.206;-6.106;2023-04-29T07:03:05;1.67;;;0.93;;
58685;SDS011;44465;53.206;-6.106;2023-04-29T07:05:30;0.70;;;0.70;;
58685;SDS011;44465;53.206;-6.106;2023-04-29T07:07:56;0.70;;;0.70;;
58685;SDS011;44465;53.206;-6.106;2023-04-29T07:10:23;0.80;;;0.77;;
58685;SDS011;44465;53.206;-6.106;2023-04-29T07:12:53;0.60;;;0.60;;
58685;SDS011;44465;53.206;-6.106;2023-04-29T07:15:20;0.80;;;0.80;;
58685;SDS011;44465;53.206;-6.106;2023-04-29T07:17:45;2.13;;;0.73;;
58685;SDS011;44465;53.206;-6.106;2023-04-29T07:20:11;2.03;;;1.00;;
58685;SDS011;44465;53.206;-6.106;2023-04-29T07:22:37;0.70;;;0.70;;
58685;SDS011;44465;53.206;-6.106;2023-04-29T07:25:03;0.60;;;0.60;;
58685;SDS011;44465;53.206;-6.106;2023-04-29T07:27:29;0.88;;;0.88;;
58685;SDS011;44465;53.206;-6.106;2023-04-29T07:29:58;0.90;;;0.90;;
58685;SDS011;44465;53.206;-6.106;2023-04-29T07:32:25;1.52;;;0.90;;
58685;SDS011;44465;53.206;-6.106;2023-04-29T07:34:51;0.68;;;0.68;;
58685;SDS011;44465;53.206;-6.106;2023-04-29T07:37:16;0.85;;;0.80;;
58685;SDS011;44465;53.206;-6.106;2023-04-29T07:39:42;0.93;;;0.93;;
58685;SDS011;44465;53.206;-6.106;2023-04-29T07:42:09;0.70;;;0.70;;
58685;SDS011;44465;53.206;-6.106;2023-04-29T07:44:34;0.73;;;0.68;;
58685;SDS011;44465;53.206;-6.106;2023-04-29T07:47:01;0.70;;;0.70;;
58685;SDS011;44465;53.206;-6.106;2023-04-29T07:49:26;0.90;;;0.90;;
58685;SDS011;44465;53.206;-6.106;2023-04-29T07:51:52;3.17;;;0.80;;
58685;SDS011;44465;53.206;-6.106;2023-04-29T07:54:18;0.82;;;0.75;;
58685;SDS011;44465;53.206;-6.106;2023-04-29T07:56:44;1.17;;;0.77;;
58685;SDS011;44465;53.206;-6.106;2023-04-29T07:59:10;1.00;;;0.90;;
58685;SDS011;44465;53.206;-6.106;2023-04-29T08:01:36;1.25;;;1.00;;
58685;SDS011;44465;53.206;-6.106;2023-04-29T08:04:02;0.93;;;0.90;;
58685;SDS011;44465;53.206;-6.106;2023-04-29T08:06:30;1.52;;;1.00;;
58685;SDS011;44465;53.206;-6.106;2023-04-29T08:08:56;1.27;;;0.70;;
58685;SDS011;44465;53.206;-6.106;2023-04-29T08:11:21;0.73;;;0.73;;
58685;SDS011;44465;53.206;-6.106;2023-04-29T08:13:48;1.00;;;0.67;;
58685;SDS011;44465;53.206;-6.106;2023-04-29T08:16:15;1.10;;;0.85;;
58685;SDS011;44465;53.206;-6.106;2023-04-29T08:18:40;1.40;;;0.90;;
58685;SDS011;44465;53.206;-6.106;2023-04-29T08:21:07;0.93;;;0.93;;
58685;SDS011;44465;53.206;-6.106;2023-04-29T08:23:35;1.48;;;1.17;;
58685;SDS011;44465;53.206;-6.106;2023-04-29T08:26:01;0.90;;;0.90;;
58685;SDS011;44465;53.206;-6.106;2023-04-29T08:28:27;1.13;;;0.90;;
58685;SDS011;44465;53.206;-6.106;2023-04-29T08:30:53;0.90;;;0.88;;
58685;SDS011;44465;53.206;-6.106;2023-04-29T08:33:19;0.77;;;0.77;;
58685;SDS011;44465;53.206;-6.106;2023-04-29T08:35:45;0.98;;;0.82;;
58685;SDS011;44465;53.206;-6.106;2023-04-29T08:38:11;0.80;;;0.80;;
58685;SDS011;44465;53.206;-6.106;2023-04-29T08:40:41;0.70;;;0.70;;
58685;SDS011;44465;53.206;-6.106;2023-04-29T08:43:08;0.80;;;0.80;;
58685;SDS011;44465;53.206;-6.106;2023-04-29T08:45:34;2.03;;;0.88;;
58685;SDS011;44465;53.206;-6.106;2023-04-29T08:48:03;0.80;;;0.60;;
58685;SDS011;44465;53.206;-6.106;2023-04-29T08:50:36;0.77;;;0.77;;
58685;SDS011;44465;53.206;-6.106;2023-04-29T08:53:04;0.88;;;0.88;;
58685;SDS011;44465;53.206;-6.106;2023-04-29T08:55:35;1.27;;;0.88;;
58685;SDS011;44465;53.206;-6.106;2023-04-29T08:58:06;1.13;;;0.90;;
58685;SDS011;44465;53.206;-6.106;2023-04-29T09:00:33;1.58;;;0.88;;
58685;SDS011;44465;53.206;-6.106;2023-04-29T09:03:00;2.13;;;0.88;;
58685;SDS011;44465;53.206;-6.106;2023-04-29T09:05:36;1.30;;;0.95;;
58685;SDS011;44465;53.206;-6.106;2023-04-29T09:08:03;1.43;;;0.80;;
58685;SDS011;44465;53.206;-6.106;2023-04-29T09:10:29;0.77;;;0.77;;
58685;SDS011;44465;53.206;-6.106;2023-04-29T09:12:56;0.82;;;0.82;;
58685;SDS011;44465;53.206;-6.106;2023-04-29T09:15:24;0.85;;;0.85;;
58685;SDS011;44465;53.206;-6.106;2023-04-29T09:17:50;1.00;;;0.90;;
58685;SDS011;44465;53.206;-6.106;2023-04-29T09:22:48;1.85;;;0.90;;
58685;SDS011;44465;53.206;-6.106;2023-04-29T09:25:15;0.90;;;0.90;;
58685;SDS011;44465;53.206;-6.106;2023-04-29T09:27:40;0.80;;;0.80;;
58685;SDS011;44465;53.206;-6.106;2023-04-29T09:30:07;28.60;;;3.72;;
58685;SDS011;44465;53.206;-6.106;2023-04-29T09:32:33;11.23;;;1.58;;
58685;SDS011;44465;53.206;-6.106;2023-04-29T09:38:30;2.30;;;2.10;;
58685;SDS011;44465;53.206;-6.106;2023-04-29T09:40:51;2.45;;;2.25;;
58685;SDS011;44465;53.206;-6.106;2023-04-29T09:43:17;4.22;;;3.13;;
58685;SDS011;44465;53.206;-6.106;2023-04-29T09:45:44;4.90;;;2.97;;
58685;SDS011;44465;53.206;-6.106;2023-04-29T09:48:11;5.60;;;2.67;;
58685;SDS011;44465;53.206;-6.106;2023-04-29T09:50:37;15.73;;;2.80;;
58685;SDS011;44465;53.206;-6.106;2023-04-29T09:53:04;8.05;;;2.40;;
58685;SDS011;44465;53.206;-6.106;2023-04-29T09:58:26;12.07;;;2.70;;
58685;SDS011;44465;53.206;-6.106;2023-04-29T10:00:58;5.60;;;2.42;;
58685;SDS011;44465;53.206;-6.106;2023-04-29T10:03:26;4.15;;;2.70;;
58685;SDS011;44465;53.206;-6.106;2023-04-29T10:05:59;11.98;;;2.58;;
58685;SDS011;44465;53.206;-6.106;2023-04-29T10:08:26;8.23;;;2.70;;
58685;SDS011;44465;53.206;-6.106;2023-04-29T10:10:53;4.22;;;2.47;;
58685;SDS011;44465;53.206;-6.106;2023-04-29T10:13:24;5.57;;;2.55;;
58685;SDS011;44465;53.206;-6.106;2023-04-29T10:16:00;2.72;;;2.22;;
58685;SDS011;44465;53.206;-6.106;2023-04-29T10:18:36;4.97;;;2.55;;
58685;SDS011;44465;53.206;-6.106;2023-04-29T10:21:02;6.30;;;3.20;;
58685;SDS011;44465;53.206;-6.106;2023-04-29T10:23:32;13.93;;;4.03;;
58685;SDS011;44465;53.206;-6.106;2023-04-29T10:25:58;8.25;;;3.00;;
58685;SDS011;44465;53.206;-6.106;2023-04-29T10:28:25;5.60;;;3.23;;
58685;SDS011;44465;53.206;-6.106;2023-04-29T10:30:53;5.65;;;2.95;;
58685;SDS011;44465;53.206;-6.106;2023-04-29T10:33:22;3.30;;;2.78;;
58685;SDS011;44465;53.206;-6.106;2023-04-29T10:35:47;3.95;;;2.55;;
58685;SDS011;44465;53.206;-6.106;2023-04-29T10:38:25;4.50;;;2.85;;
58685;SDS011;44465;53.206;-6.106;2023-04-29T10:40:54;6.55;;;4.03;;
58685;SDS011;44465;53.206;-6.106;2023-04-29T10:43:23;5.35;;;3.30;;
58685;SDS011;44465;53.206;-6.106;2023-04-29T10:46:13;4.95;;;2.85;;
58685;SDS011;44465;53.206;-6.106;2023-04-29T10:48:43;10.07;;;2.92;;
58685;SDS011;44465;53.206;-6.106;2023-04-29T10:51:09;5.63;;;3.10;;
58685;SDS011;44465;53.206;-6.106;2023-04-29T10:53:34;3.75;;;2.80;;
58685;SDS011;44465;53.206;-6.106;2023-04-29T10:56:04;25.17;;;4.35;;
58685;SDS011;44465;53.206;-6.106;2023-04-29T11:01:01;4.95;;;2.65;;
58685;SDS011;44465;53.206;-6.106;2023-04-29T11:03:44;9.25;;;3.22;;
58685;SDS011;44465;53.206;-6.106;2023-04-29T11:06:10;6.57;;;3.53;;
58685;SDS011;44465;53.206;-6.106;2023-04-29T11:08:39;5.97;;;3.28;;
58685;SDS011;44465;53.206;-6.106;2023-04-29T11:11:05;8.38;;;3.92;;
58685;SDS011;44465;53.206;-6.106;2023-04-29T11:13:31;9.25;;;3.88;;
58685;SDS011;44465;53.206;-6.106;2023-04-29T11:18:31;9.73;;;3.88;;
58685;SDS011;44465;53.206;-6.106;2023-04-29T11:23:32;7.80;;;4.90;;
58685;SDS011;44465;53.206;-6.106;2023-04-29T11:25:59;10.20;;;5.93;;
58685;SDS011;44465;53.206;-6.106;2023-04-29T11:28:29;9.80;;;6.22;;
58685;SDS011;44465;53.206;-6.106;2023-04-29T11:30:56;9.98;;;5.82;;
58685;SDS011;44465;53.206;-6.106;2023-04-29T11:33:25;8.57;;;4.72;;
58685;SDS011;44465;53.206;-6.106;2023-04-29T11:35:52;10.38;;;5.63;;
58685;SDS011;44465;53.206;-6.106;2023-04-29T11:38:28;9.43;;;5.03;;
58685;SDS011;44465;53.206;-6.106;2023-04-29T11:40:55;10.43;;;6.32;;
58685;SDS011;44465;53.206;-6.106;2023-04-29T11:43:21;13.23;;;6.32;;
58685;SDS011;44465;53.206;-6.106;2023-04-29T11:45:48;10.45;;;5.82;;
58685;SDS011;44465;53.206;-6.106;2023-04-29T11:48:22;12.13;;;5.80;;
58685;SDS011;44465;53.206;-6.106;2023-04-29T11:50:52;13.05;;;5.65;;
58685;SDS011;44465;53.206;-6.106;2023-04-29T11:53:23;12.25;;;6.43;;
58685;SDS011;44465;53.206;-6.106;2023-04-29T11:55:52;12.40;;;5.88;;
58685;SDS011;44465;53.206;-6.106;2023-04-29T11:58:21;11.52;;;6.18;;
58685;SDS011;44465;53.206;-6.106;2023-04-29T12:00:48;10.23;;;5.20;;
58685;SDS011;44465;53.206;-6.106;2023-04-29T12:03:14;8.35;;;4.70;;
58685;SDS011;44465;53.206;-6.106;2023-04-29T12:05:47;9.73;;;4.95;;
58685;SDS011;44465;53.206;-6.106;2023-04-29T12:08:23;12.63;;;5.55;;
58685;SDS011;44465;53.206;-6.106;2023-04-29T12:10:55;8.73;;;4.90;;
58685;SDS011;44465;53.206;-6.106;2023-04-29T12:13:22;8.55;;;5.07;;
58685;SDS011;44465;53.206;-6.106;2023-04-29T12:15:49;9.25;;;5.60;;
58685;SDS011;44465;53.206;-6.106;2023-04-29T12:18:16;13.25;;;6.18;;
58685;SDS011;44465;53.206;-6.106;2023-04-29T12:20:43;8.93;;;5.67;;
58685;SDS011;44465;53.206;-6.106;2023-04-29T12:23:13;10.07;;;5.60;;
58685;SDS011;44465;53.206;-6.106;2023-04-29T12:25:53;12.38;;;4.93;;
58685;SDS011;44465;53.206;-6.106;2023-04-29T12:28:19;13.18;;;6.38;;
58685;SDS011;44465;53.206;-6.106;2023-04-29T12:30:45;10.68;;;6.38;;
58685;SDS011;44465;53.206;-6.106;2023-04-29T12:33:22;10.77;;;5.15;;
58685;SDS011;44465;53.206;-6.106;2023-04-29T12:35:49;10.80;;;5.75;;
58685;SDS011;44465;53.206;-6.106;2023-04-29T12:38:23;10.93;;;5.90;;
58685;SDS011;44465;53.206;-6.106;2023-04-29T12:40:52;10.80;;;5.35;;
58685;SDS011;44465;53.206;-6.106;2023-04-29T12:43:18;18.23;;;6.10;;
58685;SDS011;44465;53.206;-6.106;2023-04-29T12:45:44;14.63;;;6.25;;
58685;SDS011;44465;53.206;-6.106;2023-04-29T12:48:10;13.23;;;6.45;;
58685;SDS011;44465;53.206;-6.106;2023-04-29T12:50:37;10.40;;;6.10;;
58685;SDS011;44465;53.206;-6.106;2023-04-29T12:53:04;13.10;;;6.65;;
58685;SDS011;44465;53.206;-6.106;2023-04-29T12:55:34;11.80;;;6.47;;
58685;SDS011;44465;53.206;-6.106;2023-04-29T12:58:04;14.48;;;6.45;;
58685;SDS011;44465;53.206;-6.106;2023-04-29T13:00:31;12.25;;;6.57;;
58685;SDS011;44465;53.206;-6.106;2023-04-29T13:02:58;16.10;;;6.95;;
58685;SDS011;44465;53.206;-6.106;2023-04-29T13:05:24;13.50;;;6.82;;
58685;SDS011;44465;53.206;-6.106;2023-04-29T13:07:49;17.42;;;6.07;;
58685;SDS011;44465;53.206;-6.106;2023-04-29T13:10:15;33.78;;;7.65;;
58685;SDS011;44465;53.206;-6.106;2023-04-29T13:12:41;22.95;;;7.32;;
58685;SDS011;44465;53.206;-6.106;2023-04-29T13:15:07;18.35;;;7.07;;
58685;SDS011;44465;53.206;-6.106;2023-04-29T13:21:22;17.08;;;5.72;;
58685;SDS011;44465;53.206;-6.106;2023-04-29T13:23:49;23.27;;;6.50;;
58685;SDS011;44465;53.206;-6.106;2023-04-29T13:26:19;18.27;;;5.85;;
58685;SDS011;44465;53.206;-6.106;2023-04-29T13:28:49;15.55;;;5.47;;
58685;SDS011;44465;53.206;-6.106;2023-04-29T13:31:16;13.48;;;5.32;;
58685;SDS011;44465;53.206;-6.106;2023-04-29T13:33:54;14.95;;;5.75;;
58685;SDS011;44465;53.206;-6.106;2023-04-29T13:36:24;14.85;;;5.47;;
58685;SDS011;44465;53.206;-6.106;2023-04-29T13:38:52;16.25;;;5.22;;
58685;SDS011;44465;53.206;-6.106;2023-04-29T13:41:20;12.45;;;5.47;;
58685;SDS011;44465;53.206;-6.106;2023-04-29T13:43:46;13.27;;;5.32;;
58685;SDS011;44465;53.206;-6.106;2023-04-29T13:46:13;15.88;;;5.05;;
58685;SDS011;44465;53.206;-6.106;2023-04-29T13:48:38;43.47;;;9.73;;
58685;SDS011;44465;53.206;-6.106;2023-04-29T13:51:06;37.38;;;7.45;;
58685;SDS011;44465;53.206;-6.106;2023-04-29T13:53:32;31.17;;;6.78;;
58685;SDS011;44465;53.206;-6.106;2023-04-29T13:55:59;52.80;;;7.88;;
58685;SDS011;44465;53.206;-6.106;2023-04-29T13:58:25;31.38;;;6.82;;
58685;SDS011;44465;53.206;-6.106;2023-04-29T14:00:50;16.27;;;6.47;;
58685;SDS011;44465;53.206;-6.106;2023-04-29T14:03:16;20.45;;;7.32;;
58685;SDS011;44465;53.206;-6.106;2023-04-29T14:05:42;20.52;;;6.47;;
58685;SDS011;44465;53.206;-6.106;2023-04-29T14:08:09;22.88;;;7.07;;
58685;SDS011;44465;53.206;-6.106;2023-04-29T14:10:34;18.85;;;6.57;;
58685;SDS011;44465;53.206;-6.106;2023-04-29T14:13:06;19.25;;;7.68;;
58685;SDS011;44465;53.206;-6.106;2023-04-29T14:15:32;27.42;;;7.25;;
58685;SDS011;44465;53.206;-6.106;2023-04-29T14:17:57;19.95;;;8.13;;
58685;SDS011;44465;53.206;-6.106;2023-04-29T14:20:23;19.40;;;6.28;;
58685;SDS011;44465;53.206;-6.106;2023-04-29T14:22:48;15.75;;;6.97;;
58685;SDS011;44465;53.206;-6.106;2023-04-29T14:25:14;17.13;;;7.95;;
58685;SDS011;44465;53.206;-6.106;2023-04-29T14:27:39;19.33;;;7.47;;
58685;SDS011;44465;53.206;-6.106;2023-04-29T14:30:05;21.52;;;7.60;;
58685;SDS011;44465;53.206;-6.106;2023-04-29T14:32:31;12.25;;;6.65;;
58685;SDS011;44465;53.206;-6.106;2023-04-29T14:34:56;19.63;;;6.88;;
58685;SDS011;44465;53.206;-6.106;2023-04-29T14:37:22;19.40;;;7.53;;
58685;SDS011;44465;53.206;-6.106;2023-04-29T14:39:48;23.45;;;6.68;;
58685;SDS011;44465;53.206;-6.106;2023-04-29T14:42:13;18.42;;;6.15;;
58685;SDS011;44465;53.206;-6.106;2023-04-29T14:44:39;20.27;;;6.25;;
58685;SDS011;44465;53.206;-6.106;2023-04-29T14:47:05;16.23;;;6.72;;
58685;SDS011;44465;53.206;-6.106;2023-04-29T14:49:30;20.42;;;7.68;;
58685;SDS011;44465;53.206;-6.106;2023-04-29T14:51:56;16.75;;;6.97;;
58685;SDS011;44465;53.206;-6.106;2023-04-29T14:54:21;27.23;;;6.90;;
58685;SDS011;44465;53.206;-6.106;2023-04-29T14:56:47;22.67;;;6.88;;
58685;SDS011;44465;53.206;-6.106;2023-04-29T14:59:12;16.63;;;6.55;;
58685;SDS011;44465;53.206;-6.106;2023-04-29T15:01:38;27.08;;;7.97;;
58685;SDS011;44465;53.206;-6.106;2023-04-29T15:04:04;26.67;;;7.80;;
58685;SDS011;44465;53.206;-6.106;2023-04-29T15:06:30;31.10;;;8.98;;
58685;SDS011;44465;53.206;-6.106;2023-04-29T15:08:56;46.45;;;9.07;;
58685;SDS011;44465;53.206;-6.106;2023-04-29T15:11:22;37.42;;;8.73;;
58685;SDS011;44465;53.206;-6.106;2023-04-29T15:13:48;94.50;;;14.65;;
58685;SDS011;44465;53.206;-6.106;2023-04-29T15:16:13;165.10;;;25.50;;